Time;durP1;ratioP1;P1;durP2;ratioP2;P2;SDS_P1;SDS_P2;PMS_P1;PMS_P2;Temp;Humidity;BMP_temperature;BMP_pressure;BME280_temperature;BME280_humidity;BME280_pressure;Samples;Min_cycle;Max_cycle;Signal;HPM_P1;HPM_P2
2021/08/13 00:00:34;;;;;;;12.40;8.30;;;17.80;99.90;;;;;;4905362;29;20028;-54
2021/08/13 00:03:00;;;;;;;12.00;7.55;;;17.80;99.90;;;;;;4902541;29;20032;-55
2021/08/13 00:05:25;;;;;;;12.05;8.52;;;17.80;99.90;;;;;;4910598;29;20040;-51
2021/08/13 00:07:51;;;;;;;13.73;8.60;;;17.80;99.90;;;;;;4908872;29;20055;-56
2021/08/13 00:10:16;;;;;;;16.73;9.82;;;17.80;99.90;;;;;;4897413;29;22037;-57
2021/08/13 00:12:42;;;;;;;12.68;9.55;;;17.80;99.90;;;;;;4906748;29;20103;-55
2021/08/13 00:15:08;;;;;;;13.18;8.80;;;17.80;99.90;;;;;;4905361;29;20036;-57
2021/08/13 00:17:34;;;;;;;11.57;8.80;;;17.80;99.90;;;;;;4904926;29;20043;-58
2021/08/13 00:20:00;;;;;;;16.25;9.10;;;17.90;99.90;;;;;;4908542;29;20028;-58
2021/08/13 00:22:25;;;;;;;14.13;9.10;;;17.90;99.90;;;;;;4904700;29;20045;-58
2021/08/13 00:24:51;;;;;;;16.30;8.65;;;17.80;99.90;;;;;;4909646;29;20029;-57
2021/08/13 00:27:17;;;;;;;11.93;9.13;;;17.80;99.90;;;;;;4909475;29;20028;-56
2021/08/13 00:29:43;;;;;;;10.38;8.25;;;17.70;99.90;;;;;;4907344;29;20519;-56
2021/08/13 00:32:08;;;;;;;16.50;9.88;;;17.60;99.90;;;;;;4901390;29;20099;-55
2021/08/13 00:34:34;;;;;;;12.90;9.15;;;17.40;99.90;;;;;;4905925;29;20068;-55
2021/08/13 00:37:00;;;;;;;13.88;8.98;;;17.40;99.90;;;;;;4904291;29;20028;-58
2021/08/13 00:39:25;;;;;;;14.45;9.45;;;17.30;99.90;;;;;;4905006;29;20098;-56
2021/08/13 00:41:51;;;;;;;13.25;9.50;;;17.20;99.90;;;;;;4906685;29;20123;-57
2021/08/13 00:44:16;;;;;;;13.00;9.68;;;17.20;99.90;;;;;;4901584;29;20123;-57
2021/08/13 00:46:42;;;;;;;12.45;9.73;;;17.20;99.90;;;;;;4912282;29;20483;-54
2021/08/13 00:49:07;;;;;;;14.88;9.02;;;17.10;99.90;;;;;;4909397;29;20024;-56
2021/08/13 00:51:34;;;;;;;14.35;9.02;;;17.10;99.90;;;;;;4904744;29;20024;-56
2021/08/13 00:54:00;;;;;;;15.07;9.82;;;17.10;99.90;;;;;;4910893;29;20043;-55
2021/08/13 00:56:25;;;;;;;11.48;8.68;;;17.10;99.90;;;;;;4910865;29;20032;-56
2021/08/13 00:58:51;;;;;;;15.85;8.95;;;17.10;99.90;;;;;;4908674;29;20036;-52
2021/08/13 01:01:18;;;;;;;12.95;9.32;;;17.10;99.90;;;;;;4905314;29;20032;-55
2021/08/13 01:03:43;;;;;;;14.32;9.30;;;17.10;99.90;;;;;;4903567;29;20060;-59
2021/08/13 01:06:14;;;;;;;16.98;9.13;;;17.10;99.90;;;;;;4910052;29;20107;-57
2021/08/13 01:08:40;;;;;;;13.50;8.27;;;17.10;99.90;;;;;;4907676;29;20032;-56
2021/08/13 01:11:17;;;;;;;12.15;9.35;;;17.10;99.90;;;;;;4909222;29;20035;-57
2021/08/13 01:13:55;;;;;;;14.57;9.93;;;17.10;99.90;;;;;;4908037;29;20028;-55
2021/08/13 01:16:21;;;;;;;13.25;9.10;;;17.00;99.90;;;;;;4908745;29;20020;-55
2021/08/13 01:19:27;;;;;;;16.90;9.85;;;17.00;99.90;;;;;;4905426;29;20047;-56
2021/08/13 01:22:10;;;;;;;15.45;10.57;;;17.10;99.90;;;;;;4881389;29;20055;-57
2021/08/13 01:24:41;;;;;;;13.25;10.27;;;17.20;99.90;;;;;;4904464;29;20119;-58
2021/08/13 01:27:18;;;;;;;14.52;8.85;;;17.10;99.90;;;;;;4909306;29;20463;-53
2021/08/13 01:30:08;;;;;;;15.35;9.63;;;17.10;99.90;;;;;;4905893;29;20066;-59
2021/08/13 01:32:40;;;;;;;13.10;9.18;;;17.20;99.90;;;;;;4910028;29;20040;-57
2021/08/13 01:35:23;;;;;;;11.30;8.68;;;17.10;99.90;;;;;;4911122;29;20032;-58
2021/08/13 01:37:54;;;;;;;12.90;9.15;;;17.10;99.90;;;;;;4905358;29;20025;-58
2021/08/13 01:40:21;;;;;;;14.07;9.27;;;17.10;99.90;;;;;;4903158;29;20036;-55
2021/08/13 01:42:48;;;;;;;16.88;10.02;;;17.00;99.90;;;;;;4909443;29;20047;-55
2021/08/13 01:45:23;;;;;;;11.02;8.93;;;17.00;99.90;;;;;;4912875;29;20032;-56
2021/08/13 01:47:50;;;;;;;13.45;9.27;;;17.00;99.90;;;;;;4912465;29;20103;-56
2021/08/13 01:50:17;;;;;;;16.05;9.63;;;16.90;99.90;;;;;;4909862;29;20039;-50
2021/08/13 01:52:44;;;;;;;16.05;9.82;;;16.90;99.90;;;;;;4902198;29;20020;-56
2021/08/13 01:55:12;;;;;;;16.02;9.32;;;16.90;99.90;;;;;;4910928;29;20107;-56
2021/08/13 01:57:38;;;;;;;10.93;8.70;;;17.00;99.90;;;;;;4899225;29;20020;-55
2021/08/13 02:00:05;;;;;;;11.27;9.98;;;17.00;99.90;;;;;;4907719;29;20036;-57
2021/08/13 02:02:31;;;;;;;18.23;9.05;;;17.00;99.90;;;;;;4908966;29;20140;-57
2021/08/13 02:04:57;;;;;;;13.95;10.40;;;17.00;99.90;;;;;;4911682;29;20509;-55
2021/08/13 02:07:23;;;;;;;15.43;9.07;;;16.90;99.90;;;;;;4906007;29;20032;-54
2021/08/13 02:09:49;;;;;;;14.63;9.70;;;16.80;99.90;;;;;;4909435;29;20766;-58
2021/08/13 02:12:15;;;;;;;14.20;9.30;;;16.80;99.90;;;;;;4915960;29;20056;-56
2021/08/13 02:14:41;;;;;;;12.57;9.68;;;16.80;99.90;;;;;;4916641;29;20028;-55
2021/08/13 02:17:12;;;;;;;14.75;9.55;;;16.70;99.90;;;;;;4921844;29;20024;-55
2021/08/13 02:19:46;;;;;;;11.38;9.52;;;16.70;99.90;;;;;;4911559;29;20066;-54
2021/08/13 02:22:12;;;;;;;19.63;10.70;;;16.70;99.90;;;;;;4914241;29;20040;-56
2021/08/13 02:24:38;;;;;;;12.57;9.65;;;16.60;99.90;;;;;;4914798;29;20087;-54
2021/08/13 02:27:04;;;;;;;16.10;9.85;;;16.60;99.90;;;;;;4909829;29;20120;-56
2021/08/13 02:29:30;;;;;;;11.98;10.02;;;16.60;99.90;;;;;;4904539;29;20104;-55
2021/08/13 02:31:55;;;;;;;17.55;10.50;;;16.50;99.90;;;;;;4910747;29;20032;-58
2021/08/13 02:34:21;;;;;;;13.43;9.93;;;16.50;99.90;;;;;;4910583;29;20036;-56
2021/08/13 02:36:55;;;;;;;12.18;9.48;;;16.60;99.90;;;;;;4905383;29;20063;-53
2021/08/13 02:39:39;;;;;;;12.60;9.55;;;16.60;99.90;;;;;;4905126;29;20036;-57
2021/08/13 02:42:05;;;;;;;17.33;10.45;;;16.60;99.90;;;;;;4908892;29;20084;-58
2021/08/13 02:44:34;;;;;;;11.98;9.82;;;16.60;99.90;;;;;;4909706;29;20508;-57
2021/08/13 02:47:04;;;;;;;12.70;9.10;;;16.60;99.90;;;;;;4909503;29;20052;-58
2021/08/13 02:49:30;;;;;;;13.07;8.93;;;16.60;99.90;;;;;;4912241;29;20043;-57
2021/08/13 02:52:04;;;;;;;12.43;9.35;;;16.60;99.90;;;;;;4904014;29;20083;-57
2021/08/13 02:54:32;;;;;;;16.05;9.93;;;16.60;99.90;;;;;;4906074;29;20032;-53
2021/08/13 02:56:57;;;;;;;12.98;9.75;;;16.60;99.90;;;;;;4905405;29;20036;-58
2021/08/13 02:59:27;;;;;;;11.32;9.15;;;16.60;99.90;;;;;;4909500;29;20059;-56
2021/08/13 03:01:55;;;;;;;14.27;9.45;;;16.50;99.90;;;;;;4912429;29;20035;-57
2021/08/13 03:04:21;;;;;;;18.20;8.93;;;16.40;99.90;;;;;;4907799;29;20032;-52
2021/08/13 03:06:48;;;;;;;11.98;9.18;;;16.40;99.90;;;;;;4911325;29;20024;-57
2021/08/13 03:09:15;;;;;;;11.48;9.40;;;16.30;99.90;;;;;;4912084;29;20032;-55
2021/08/13 03:11:42;;;;;;;14.88;8.73;;;16.30;99.90;;;;;;4910343;29;20047;-56
2021/08/13 03:14:09;;;;;;;11.95;9.25;;;16.30;99.90;;;;;;4912844;29;20047;-57
2021/08/13 03:16:36;;;;;;;16.25;9.48;;;16.30;99.90;;;;;;4905415;29;20024;-55
2021/08/13 03:19:02;;;;;;;16.65;10.60;;;16.30;99.90;;;;;;4909129;29;20411;-56
2021/08/13 03:21:28;;;;;;;16.50;9.98;;;16.40;99.90;;;;;;4912729;29;20029;-56
2021/08/13 03:23:55;;;;;;;15.48;9.60;;;16.50;99.90;;;;;;4911421;29;20035;-56
2021/08/13 03:26:20;;;;;;;15.52;10.00;;;16.50;99.90;;;;;;4907573;29;20400;-49
2021/08/13 03:28:48;;;;;;;12.00;8.82;;;16.50;99.90;;;;;;4905038;29;20050;-57
2021/08/13 03:31:39;;;;;;;11.77;8.50;;;16.50;99.90;;;;;;4905464;29;20115;-58
2021/08/13 03:34:09;;;;;;;13.15;9.18;;;16.50;99.90;;;;;;4908524;29;20059;-54
2021/08/13 03:36:36;;;;;;;14.18;9.43;;;16.40;99.90;;;;;;4912090;29;20032;-58
2021/08/13 03:39:06;;;;;;;15.80;9.38;;;16.40;99.90;;;;;;4909062;29;20032;-56
2021/08/13 03:41:32;;;;;;;12.50;9.13;;;16.40;99.90;;;;;;4905545;29;20040;-57
2021/08/13 03:43:57;;;;;;;13.98;9.60;;;16.40;99.90;;;;;;4909874;29;20697;-58
2021/08/13 03:46:23;;;;;;;16.50;10.10;;;16.30;99.90;;;;;;4906435;29;20102;-57
2021/08/13 03:48:49;;;;;;;15.73;9.90;;;16.30;99.90;;;;;;4908346;29;20444;-58
2021/08/13 03:51:14;;;;;;;12.30;9.65;;;16.20;99.90;;;;;;4912735;29;20055;-53
2021/08/13 03:53:40;;;;;;;16.25;11.18;;;16.20;99.90;;;;;;4905621;29;20029;-57
2021/08/13 03:56:05;;;;;;;12.63;9.82;;;16.20;99.90;;;;;;4911200;29;20028;-53
2021/08/13 03:58:31;;;;;;;17.40;9.40;;;16.20;99.90;;;;;;4903966;29;20496;-56
2021/08/13 04:00:56;;;;;;;15.20;10.82;;;16.20;99.90;;;;;;4907423;29;20106;-56
2021/08/13 04:03:22;;;;;;;15.50;10.40;;;16.30;99.90;;;;;;4903220;29;20566;-57
2021/08/13 04:05:47;;;;;;;23.10;9.70;;;16.30;99.90;;;;;;4910905;29;20024;-57
2021/08/13 04:08:13;;;;;;;11.85;9.05;;;16.30;99.90;;;;;;4912533;29;20032;-57
2021/08/13 04:10:38;;;;;;;15.25;9.73;;;16.30;99.90;;;;;;4900315;29;20029;-54
2021/08/13 04:13:04;;;;;;;15.82;9.15;;;16.30;99.90;;;;;;4909175;29;20140;-55
2021/08/13 04:15:30;;;;;;;15.88;9.77;;;16.30;99.90;;;;;;4903440;29;20024;-56
2021/08/13 04:17:56;;;;;;;18.70;9.82;;;16.20;99.90;;;;;;4910526;29;20202;-56
2021/08/13 04:20:21;;;;;;;18.10;9.70;;;16.20;99.90;;;;;;4910181;29;20036;-55
2021/08/13 04:22:47;;;;;;;16.88;9.95;;;16.20;99.90;;;;;;4908363;29;20970;-58
2021/08/13 04:25:13;;;;;;;17.15;9.98;;;16.10;99.90;;;;;;4909448;29;20115;-55
2021/08/13 04:27:39;;;;;;;13.98;8.90;;;16.10;99.90;;;;;;4902123;29;20036;-55
2021/08/13 04:30:06;;;;;;;19.90;10.25;;;16.10;99.90;;;;;;4909914;29;20028;-57
2021/08/13 04:32:36;;;;;;;16.77;10.57;;;16.10;99.90;;;;;;4904854;29;20563;-54
2021/08/13 04:35:01;;;;;;;11.88;9.30;;;16.10;99.90;;;;;;4911771;29;20034;-58
2021/08/13 04:37:27;;;;;;;16.23;9.70;;;16.10;99.90;;;;;;4910934;29;20020;-55
2021/08/13 04:39:53;;;;;;;15.13;9.63;;;16.10;99.90;;;;;;4910241;29;20072;-54
2021/08/13 04:42:18;;;;;;;17.60;10.52;;;16.20;99.90;;;;;;4910462;29;20099;-51
2021/08/13 04:44:44;;;;;;;14.20;9.60;;;16.30;99.90;;;;;;4908442;29;20039;-57
2021/08/13 04:47:09;;;;;;;13.38;9.60;;;16.40;99.90;;;;;;4911079;29;20843;-55
2021/08/13 04:49:35;;;;;;;10.55;8.68;;;16.40;99.90;;;;;;4907230;29;20032;-56
2021/08/13 04:52:02;;;;;;;13.75;9.05;;;16.50;99.90;;;;;;4909080;29;20034;-57
2021/08/13 04:54:27;;;;;;;13.13;9.32;;;16.50;99.90;;;;;;4907574;29;20084;-59
2021/08/13 04:56:53;;;;;;;15.35;9.00;;;16.60;99.90;;;;;;4907958;29;20028;-57
2021/08/13 04:59:18;;;;;;;12.70;10.18;;;16.70;99.90;;;;;;4907729;29;20036;-55
2021/08/13 05:01:44;;;;;;;13.82;9.10;;;16.80;99.90;;;;;;4906744;29;20042;-54
2021/08/13 05:04:10;;;;;;;17.17;9.45;;;16.90;99.90;;;;;;4908953;29;20032;-59
2021/08/13 05:06:35;;;;;;;15.13;9.43;;;17.00;99.90;;;;;;4910797;29;20028;-57
2021/08/13 05:09:01;;;;;;;12.35;8.75;;;17.20;99.90;;;;;;4908766;29;20039;-56
2021/08/13 05:11:27;;;;;;;13.55;8.43;;;17.50;99.90;;;;;;4910026;29;20028;-52
2021/08/13 05:13:52;;;;;;;18.98;9.52;;;18.30;99.90;;;;;;4909685;29;20435;-56
2021/08/13 05:16:18;;;;;;;9.95;6.85;;;19.30;99.90;;;;;;4909435;29;20115;-55
2021/08/13 05:18:43;;;;;;;13.70;7.80;;;20.20;99.90;;;;;;4910081;29;20112;-56
2021/08/13 05:21:09;;;;;;;9.07;7.05;;;20.90;99.90;;;;;;4911077;29;20036;-56
2021/08/13 05:23:35;;;;;;;10.75;7.28;;;21.70;99.90;;;;;;4910736;29;20036;-55
2021/08/13 05:26:01;;;;;;;12.02;6.80;;;22.40;99.90;;;;;;4911232;29;20144;-57
2021/08/13 05:28:27;;;;;;;13.73;6.80;;;23.20;99.90;;;;;;4908181;29;20517;-58
2021/08/13 05:30:52;;;;;;;9.82;6.43;;;24.10;99.90;;;;;;4908872;29;20571;-57
2021/08/13 05:33:18;;;;;;;9.90;6.65;;;24.60;99.90;;;;;;4909681;29;20123;-57
2021/08/13 05:35:43;;;;;;;9.38;7.00;;;25.10;99.50;;;;;;4907189;29;20412;-54
2021/08/13 05:38:09;;;;;;;13.18;6.63;;;25.50;97.80;;;;;;4913274;29;20028;-58
2021/08/13 05:40:35;;;;;;;9.52;7.32;;;25.70;98.10;;;;;;4915064;29;20036;-56
2021/08/13 05:43:00;;;;;;;17.92;7.28;;;26.10;97.40;;;;;;4916205;29;20036;-57
2021/08/13 05:45:27;;;;;;;8.32;7.00;;;26.30;96.20;;;;;;4905026;29;20033;-58
2021/08/13 05:47:53;;;;;;;10.32;6.65;;;26.60;95.80;;;;;;4912028;29;21790;-58
2021/08/13 05:50:18;;;;;;;19.65;6.47;;;27.00;95.30;;;;;;4913544;29;20020;-59
2021/08/13 05:52:45;;;;;;;9.57;7.07;;;26.50;95.40;;;;;;4913479;29;20020;-58
2021/08/13 05:55:11;;;;;;;12.40;6.40;;;25.90;96.00;;;;;;4911354;29;20024;-57
2021/08/13 05:57:37;;;;;;;8.77;6.75;;;25.30;97.50;;;;;;4911654;29;20088;-58
2021/08/13 06:00:04;;;;;;;9.52;7.30;;;24.80;98.30;;;;;;4906362;29;20124;-58
2021/08/13 06:02:30;;;;;;;9.05;6.80;;;24.50;98.90;;;;;;4915068;29;20040;-58
2021/08/13 06:04:56;;;;;;;11.85;7.40;;;24.30;99.00;;;;;;4911794;29;20028;-54
2021/08/13 06:07:22;;;;;;;17.65;7.93;;;24.40;99.40;;;;;;4905937;29;20751;-58
2021/08/13 06:09:48;;;;;;;12.75;7.40;;;25.20;98.80;;;;;;4909214;29;20032;-59
2021/08/13 06:12:14;;;;;;;10.57;6.78;;;25.70;97.70;;;;;;4906598;29;20252;-60
2021/08/13 06:14:39;;;;;;;14.77;6.90;;;25.80;97.60;;;;;;4908435;29;20028;-58
2021/08/13 06:17:05;;;;;;;10.45;7.35;;;26.30;97.30;;;;;;4913422;29;20028;-59
2021/08/13 06:19:31;;;;;;;9.80;6.57;;;27.40;96.50;;;;;;4910184;29;20043;-58
2021/08/13 06:21:57;;;;;;;9.48;6.65;;;28.40;95.10;;;;;;4914000;29;20111;-57
2021/08/13 06:24:23;;;;;;;9.15;6.20;;;28.80;94.10;;;;;;4904444;29;20547;-54
2021/08/13 06:26:48;;;;;;;10.23;6.85;;;28.60;93.90;;;;;;4912297;29;20036;-60
2021/08/13 06:29:14;;;;;;;8.27;6.25;;;28.50;94.10;;;;;;4909456;29;20034;-58
2021/08/13 06:31:40;;;;;;;12.00;7.07;;;28.40;94.20;;;;;;4910559;29;20056;-60
2021/08/13 06:34:05;;;;;;;9.88;6.55;;;27.70;93.30;;;;;;4911810;29;20024;-59
2021/08/13 06:36:31;;;;;;;11.05;6.95;;;28.00;94.70;;;;;;4906997;29;20139;-59
2021/08/13 06:38:56;;;;;;;15.05;7.53;;;27.10;94.90;;;;;;4907551;29;20028;-57
2021/08/13 06:41:22;;;;;;;9.38;7.60;;;26.50;95.30;;;;;;4911659;29;20108;-58
2021/08/13 06:43:48;;;;;;;10.98;7.38;;;26.00;95.20;;;;;;4902017;29;20056;-56
2021/08/13 06:46:13;;;;;;;9.93;7.10;;;25.80;96.00;;;;;;4915117;29;20369;-57
2021/08/13 06:48:39;;;;;;;10.60;8.00;;;25.70;96.60;;;;;;4912413;29;20035;-58
2021/08/13 06:51:04;;;;;;;10.32;7.63;;;25.90;96.60;;;;;;4924670;29;20495;-57
2021/08/13 06:53:30;;;;;;;13.02;7.30;;;26.00;96.10;;;;;;4915120;29;20514;-56
2021/08/13 06:55:56;;;;;;;10.40;6.85;;;26.10;95.80;;;;;;4922239;29;20028;-59
2021/08/13 06:58:21;;;;;;;10.60;7.47;;;26.00;96.00;;;;;;4917910;29;20028;-58
2021/08/13 07:00:47;;;;;;;12.27;7.35;;;26.00;96.70;;;;;;4847068;29;20823;-57
2021/08/13 07:03:13;;;;;;;8.07;6.32;;;25.70;96.70;;;;;;4908872;29;20032;-54
2021/08/13 07:05:38;;;;;;;12.80;7.70;;;25.50;98.10;;;;;;4925806;29;20487;-59
2021/08/13 07:08:11;;;;;;;9.57;6.35;;;25.80;97.90;;;;;;4911232;29;20111;-57
2021/08/13 07:10:37;;;;;;;8.63;6.43;;;25.80;98.00;;;;;;4905079;29;20444;-55
2021/08/13 07:13:04;;;;;;;9.20;6.72;;;25.50;98.20;;;;;;4907675;29;20141;-59
2021/08/13 07:15:29;;;;;;;8.98;6.03;;;25.50;98.70;;;;;;4910434;29;20122;-54
2021/08/13 07:17:55;;;;;;;9.05;6.05;;;25.60;99.20;;;;;;4907350;29;20107;-57
2021/08/13 07:20:20;;;;;;;13.20;7.47;;;25.60;99.50;;;;;;4908949;29;20063;-57
2021/08/13 07:22:46;;;;;;;10.95;7.45;;;24.90;98.80;;;;;;4910226;29;20452;-56
2021/08/13 07:25:11;;;;;;;10.05;7.22;;;24.80;99.70;;;;;;4903384;29;20040;-57
2021/08/13 07:27:38;;;;;;;11.75;7.32;;;24.70;99.90;;;;;;4904364;29;20028;-56
2021/08/13 07:30:05;;;;;;;13.13;7.30;;;24.80;99.90;;;;;;4904779;29;20610;-57
2021/08/13 07:32:30;;;;;;;13.63;8.27;;;25.10;99.90;;;;;;4904782;29;20455;-56
2021/08/13 07:34:56;;;;;;;13.40;8.38;;;25.70;98.80;;;;;;4908123;29;20041;-56
2021/08/13 07:37:21;;;;;;;17.15;7.80;;;25.80;98.20;;;;;;4906729;29;20024;-56
2021/08/13 07:39:48;;;;;;;10.70;7.63;;;25.80;98.40;;;;;;4908611;29;20028;-58
2021/08/13 07:42:15;;;;;;;15.80;8.15;;;26.50;98.10;;;;;;4919669;29;20032;-52
2021/08/13 07:44:40;;;;;;;13.63;9.07;;;27.00;97.20;;;;;;4912685;29;20496;-56
2021/08/13 07:47:06;;;;;;;13.80;8.05;;;27.40;96.20;;;;;;4911694;29;20068;-58
2021/08/13 07:49:31;;;;;;;13.55;8.25;;;28.20;95.70;;;;;;4908557;29;20412;-59
2021/08/13 07:51:57;;;;;;;14.07;9.30;;;28.20;95.60;;;;;;4908799;29;20024;-57
2021/08/13 07:54:23;;;;;;;15.85;8.88;;;28.10;94.60;;;;;;4912497;29;20115;-54
2021/08/13 07:56:48;;;;;;;12.88;9.27;;;28.40;94.90;;;;;;4914048;29;20044;-59
2021/08/13 07:59:14;;;;;;;14.35;8.38;;;28.90;94.00;;;;;;4911833;29;20036;-57
2021/08/13 08:01:39;;;;;;;18.00;9.30;;;29.70;93.90;;;;;;4892710;29;20040;-60
2021/08/13 08:04:05;;;;;;;13.25;8.80;;;29.60;93.20;;;;;;4908296;29;20546;-58
2021/08/13 08:06:31;;;;;;;13.00;9.30;;;29.80;92.90;;;;;;4920641;29;20032;-60
2021/08/13 08:08:57;;;;;;;12.35;8.98;;;30.10;92.30;;;;;;4907696;29;20092;-60
2021/08/13 08:11:22;;;;;;;12.20;8.18;;;30.40;92.20;;;;;;4926540;29;20016;-60
2021/08/13 08:13:48;;;;;;;12.73;8.20;;;29.80;92.60;;;;;;4899738;29;20048;-59
2021/08/13 08:16:14;;;;;;;11.10;8.82;;;29.00;93.40;;;;;;4897645;29;20020;-60
2021/08/13 08:18:40;;;;;;;13.88;9.43;;;28.60;93.70;;;;;;4925021;29;20029;-56
2021/08/13 08:21:05;;;;;;;14.32;9.88;;;28.70;93.90;;;;;;4895565;29;20099;-58
2021/08/13 08:23:31;;;;;;;14.70;9.55;;;28.60;94.20;;;;;;4906515;29;20028;-57
2021/08/13 08:25:56;;;;;;;15.65;9.43;;;29.10;93.60;;;;;;4911869;29;20506;-60
2021/08/13 08:28:22;;;;;;;19.55;10.00;;;29.20;93.60;;;;;;4918939;29;20024;-57
2021/08/13 08:30:48;;;;;;;11.70;8.52;;;29.50;93.30;;;;;;4914694;29;20029;-57
2021/08/13 08:33:13;;;;;;;15.05;9.73;;;29.80;93.20;;;;;;4925687;29;20027;-58
2021/08/13 08:35:39;;;;;;;13.88;9.65;;;30.00;92.10;;;;;;4909852;29;20020;-59
2021/08/13 08:38:04;;;;;;;19.05;9.32;;;30.00;92.80;;;;;;4911371;29;20035;-58
2021/08/13 08:40:36;;;;;;;12.70;9.90;;;30.30;91.90;;;;;;4913304;29;20064;-57
2021/08/13 08:43:08;;;;;;;21.73;10.77;;;30.50;91.60;;;;;;4915566;29;20091;-59
2021/08/13 08:45:36;;;;;;;21.60;11.80;;;29.80;91.40;;;;;;4926451;29;20280;-60
2021/08/13 08:48:04;;;;;;;26.77;13.63;;;30.40;92.20;;;;;;4909476;29;20495;-59
2021/08/13 08:50:31;;;;;;;23.42;12.30;;;30.10;91.20;;;;;;4907889;29;20040;-59
2021/08/13 08:53:00;;;;;;;22.73;12.57;;;30.40;91.10;;;;;;4909134;29;20054;-58
2021/08/13 08:55:25;;;;;;;17.70;12.68;;;30.20;91.60;;;;;;4911688;29;20495;-58
2021/08/13 08:57:54;;;;;;;19.58;13.07;;;30.10;90.90;;;;;;4898568;29;20057;-58
2021/08/13 09:00:21;;;;;;;19.83;12.27;;;29.90;92.00;;;;;;4894738;29;20024;-58
2021/08/13 09:02:46;;;;;;;22.60;15.40;;;30.50;91.40;;;;;;4909844;29;20036;-57
2021/08/13 09:05:13;;;;;;;22.60;16.52;;;30.40;90.10;;;;;;4913491;29;20051;-57
2021/08/13 09:07:39;;;;;;;26.50;17.48;;;30.00;91.70;;;;;;4906556;29;20116;-57
2021/08/13 09:10:07;;;;;;;23.45;15.82;;;29.90;90.20;;;;;;4907084;29;20107;-57
2021/08/13 09:12:33;;;;;;;26.70;20.00;;;29.90;91.00;;;;;;4898017;29;20408;-58
2021/08/13 09:15:00;;;;;;;29.10;19.05;;;30.30;89.90;;;;;;4908518;29;20543;-58
2021/08/13 09:17:30;;;;;;;20.33;16.33;;;30.70;89.50;;;;;;4900792;29;20042;-57
2021/08/13 09:19:57;;;;;;;29.30;17.88;;;30.80;90.60;;;;;;4912100;29;20415;-58
2021/08/13 09:22:24;;;;;;;20.55;16.25;;;30.80;89.30;;;;;;4911006;29;20028;-58
2021/08/13 09:24:54;;;;;;;28.95;18.58;;;30.70;89.90;;;;;;4913282;29;20399;-59
2021/08/13 09:27:30;;;;;;;23.73;17.90;;;30.60;88.60;;;;;;4910669;29;20055;-57
2021/08/13 09:30:15;;;;;;;24.98;18.77;;;31.00;89.20;;;;;;4908680;29;20107;-57
2021/08/13 09:32:43;;;;;;;30.80;19.48;;;30.90;89.10;;;;;;4906561;29;20032;-56
2021/08/13 09:35:09;;;;;;;26.40;18.50;;;30.50;88.70;;;;;;4910211;29;20020;-59
2021/08/13 09:37:38;;;;;;;18.17;16.05;;;30.20;89.90;;;;;;4912348;29;20062;-57
2021/08/13 09:40:05;;;;;;;30.08;19.20;;;30.10;90.00;;;;;;4912713;29;20103;-56
2021/08/13 09:42:34;;;;;;;30.63;20.42;;;29.40;90.80;;;;;;4907391;29;20048;-57
2021/08/13 09:45:04;;;;;;;25.63;18.05;;;29.50;90.90;;;;;;4910196;29;20055;-60
2021/08/13 09:47:43;;;;;;;27.05;21.48;;;29.70;91.30;;;;;;4904842;29;20036;-58
2021/08/13 09:50:09;;;;;;;28.25;18.40;;;30.40;90.10;;;;;;4909856;29;20036;-58
2021/08/13 09:52:35;;;;;;;23.58;18.38;;;30.30;90.80;;;;;;4908949;29;20028;-60
2021/08/13 09:55:18;;;;;;;28.10;21.05;;;30.50;89.80;;;;;;4909171;29;20024;-58
2021/08/13 09:57:46;;;;;;;32.95;21.35;;;30.10;89.70;;;;;;4903021;29;20020;-60
2021/08/13 10:00:13;;;;;;;29.63;21.05;;;29.20;91.10;;;;;;4912369;29;20036;-59
2021/08/13 10:02:40;;;;;;;29.67;19.92;;;29.20;91.70;;;;;;4893749;29;20511;-57
2021/08/13 10:05:26;;;;;;;29.33;22.45;;;29.60;91.70;;;;;;4909489;29;20040;-59
2021/08/13 10:08:03;;;;;;;36.63;20.75;;;29.60;91.90;;;;;;4906423;29;20024;-56
2021/08/13 10:10:46;;;;;;;29.88;21.95;;;29.60;91.50;;;;;;4908573;29;20032;-56
2021/08/13 10:13:12;;;;;;;37.50;25.92;;;29.50;91.50;;;;;;4906420;29;20079;-59
2021/08/13 10:15:47;;;;;;;31.15;22.58;;;29.10;90.90;;;;;;4909705;29;20037;-57
2021/08/13 10:18:15;;;;;;;36.25;21.98;;;28.70;92.10;;;;;;4906612;29;20040;-59
2021/08/13 10:20:47;;;;;;;31.00;24.10;;;28.10;93.20;;;;;;4912161;29;20091;-59
2021/08/13 10:23:14;;;;;;;31.50;22.87;;;27.60;93.20;;;;;;4892454;29;20048;-59
2021/08/13 10:25:40;;;;;;;38.75;23.17;;;27.60;93.70;;;;;;4919228;29;20039;-58
2021/08/13 10:28:05;;;;;;;32.75;21.80;;;27.30;93.70;;;;;;4915255;29;20087;-57
2021/08/13 10:30:31;;;;;;;27.90;20.73;;;27.80;94.40;;;;;;4914203;29;20144;-58
2021/08/13 10:32:59;;;;;;;32.90;22.92;;;28.10;94.40;;;;;;4912653;29;20034;-56
2021/08/13 10:35:29;;;;;;;34.67;24.48;;;28.60;93.00;;;;;;4915101;29;20047;-58
2021/08/13 10:37:58;;;;;;;36.28;23.33;;;29.00;93.10;;;;;;4913400;29;20034;-60
2021/08/13 10:40:25;;;;;;;34.78;24.08;;;29.00;92.80;;;;;;4908392;29;20025;-57
2021/08/13 10:42:52;;;;;;;32.22;24.13;;;29.10;92.60;;;;;;4909342;29;20605;-55
2021/08/13 10:45:22;;;;;;;32.58;25.65;;;28.90;92.10;;;;;;4904973;29;20740;-57
2021/08/13 10:47:53;;;;;;;31.58;22.08;;;28.50;92.40;;;;;;4909290;29;20124;-55
2021/08/13 10:50:20;;;;;;;31.95;19.02;;;28.50;92.80;;;;;;4904707;29;20043;-57
2021/08/13 10:52:45;;;;;;;29.40;18.50;;;28.30;93.20;;;;;;4909840;29;20052;-57
2021/08/13 10:55:36;;;;;;;28.58;18.60;;;28.30;93.70;;;;;;4910941;29;20467;-54
2021/08/13 10:58:02;;;;;;;31.73;20.73;;;28.20;93.00;;;;;;4906548;29;20499;-58
2021/08/13 11:01:06;;;;;;;26.73;18.17;;;28.00;92.60;;;;;;4911769;29;20042;-53
2021/08/13 11:04:01;;;;;;;27.90;17.20;;;28.00;93.30;;;;;;4915158;29;20098;-58
2021/08/13 11:06:41;;;;;;;27.35;15.88;;;28.20;93.40;;;;;;4906021;29;20048;-49
2021/08/13 11:09:19;;;;;;;21.92;16.23;;;28.50;93.00;;;;;;4922711;29;20049;-56
2021/08/13 11:11:56;;;;;;;25.23;15.35;;;28.50;93.30;;;;;;4919786;29;20024;-59
2021/08/13 11:14:25;;;;;;;20.05;14.13;;;28.50;92.70;;;;;;4920218;29;20030;-57
2021/08/13 11:16:51;;;;;;;19.55;13.60;;;28.40;93.70;;;;;;4920072;29;20023;-56
2021/08/13 11:19:19;;;;;;;19.30;13.70;;;28.50;93.50;;;;;;4909679;29;20035;-58
2021/08/13 11:21:48;;;;;;;23.55;13.80;;;28.00;93.10;;;;;;4907408;29;20503;-58
2021/08/13 11:24:16;;;;;;;20.33;14.65;;;28.10;93.20;;;;;;4914584;29;20059;-57
2021/08/13 11:26:50;;;;;;;24.23;13.85;;;28.00;93.10;;;;;;4912608;29;20036;-56
2021/08/13 11:29:33;;;;;;;23.00;14.10;;;28.10;92.50;;;;;;4909562;29;20060;-56
2021/08/13 11:32:23;;;;;;;16.73;13.35;;;28.20;92.50;;;;;;4905212;29;20080;-54
2021/08/13 11:34:49;;;;;;;22.80;13.35;;;28.20;93.30;;;;;;4900597;29;20127;-58
2021/08/13 11:37:27;;;;;;;20.52;14.45;;;28.30;92.80;;;;;;4904020;29;20039;-55
2021/08/13 11:39:58;;;;;;;19.20;12.95;;;28.50;92.00;;;;;;4905844;29;20111;-57
2021/08/13 11:42:24;;;;;;;23.85;14.68;;;28.30;93.00;;;;;;4904295;29;20503;-55
2021/08/13 11:44:51;;;;;;;16.95;13.10;;;28.30;92.40;;;;;;4900312;29;20029;-55
2021/08/13 11:47:20;;;;;;;16.83;12.15;;;28.10;92.80;;;;;;4902369;29;20032;-58
2021/08/13 11:49:46;;;;;;;18.95;11.02;;;28.50;92.90;;;;;;4897594;29;20037;-56
2021/08/13 11:52:18;;;;;;;19.45;13.23;;;28.30;92.90;;;;;;4897086;29;20036;-56
2021/08/13 11:54:43;;;;;;;19.42;10.90;;;28.50;92.50;;;;;;4904736;29;20116;-57
2021/08/13 11:57:17;;;;;;;18.23;12.50;;;28.40;92.80;;;;;;4904942;29;20511;-55
2021/08/13 11:59:44;;;;;;;14.88;10.80;;;28.40;93.10;;;;;;4902003;29;20122;-56
2021/08/13 12:02:10;;;;;;;22.20;14.38;;;28.60;92.90;;;;;;4899800;29;20039;-56
2021/08/13 12:04:36;;;;;;;14.40;11.05;;;28.40;91.90;;;;;;4904843;29;20612;-57
2021/08/13 12:07:04;;;;;;;12.95;10.50;;;28.20;92.60;;;;;;4904731;29;20036;-58
2021/08/13 12:09:31;;;;;;;14.80;9.68;;;28.10;93.40;;;;;;4901733;29;20543;-53
2021/08/13 12:11:57;;;;;;;12.52;8.20;;;27.90;92.50;;;;;;4900348;29;20035;-59
2021/08/13 12:14:22;;;;;;;9.95;7.47;;;28.00;92.80;;;;;;4904638;29;20028;-56
2021/08/13 12:16:53;;;;;;;13.20;6.65;;;28.40;91.80;;;;;;4902779;29;20043;-57
2021/08/13 12:19:19;;;;;;;10.77;7.50;;;28.30;91.70;;;;;;4898450;29;20029;-55
2021/08/13 12:21:59;;;;;;;13.93;8.40;;;28.00;91.00;;;;;;4902731;29;20152;-57
2021/08/13 12:24:35;;;;;;;11.77;7.10;;;28.20;91.30;;;;;;4896583;29;20029;-55
2021/08/13 12:27:05;;;;;;;11.02;6.75;;;28.10;91.30;;;;;;4899273;29;20051;-56
2021/08/13 12:29:31;;;;;;;10.93;7.22;;;28.00;91.00;;;;;;4897026;29;20511;-56
2021/08/13 12:31:59;;;;;;;10.63;5.90;;;27.80;91.10;;;;;;4900039;29;20025;-53
2021/08/13 12:34:26;;;;;;;8.55;6.05;;;28.00;91.20;;;;;;4903999;29;20048;-56
2021/08/13 12:37:05;;;;;;;12.88;6.07;;;27.80;91.20;;;;;;4909669;29;20567;-57